Time;durP1;ratioP1;P1;durP2;ratioP2;P2;SDS_P1;SDS_P2;PMS_P1;PMS_P2;Temp;Humidity;BMP_temperature;BMP_pressure;BME280_temperature;BME280_humidity;BME280_pressure;Samples;Min_cycle;Max_cycle;Signal;HPM_P1;HPM_P2
2023/04/09 00:01:18;;;;;;;3.93;3.60;;;20.80;72.50;;;;;;4935565;29;20454;-83
2023/04/09 00:03:45;;;;;;;4.70;4.30;;;20.80;72.50;;;;;;4935457;29;20458;-83
2023/04/09 00:06:12;;;;;;;4.70;4.30;;;20.80;72.40;;;;;;4935461;29;20478;-83
2023/04/09 00:08:39;;;;;;;4.40;4.10;;;21.00;72.50;;;;;;4935449;29;20455;-82
2023/04/09 00:11:06;;;;;;;4.40;4.00;;;20.80;72.20;;;;;;4935608;29;20460;-82
2023/04/09 00:13:33;;;;;;;5.40;4.73;;;20.80;72.40;;;;;;4935339;29;20446;-83
2023/04/09 00:16:01;;;;;;;4.73;4.00;;;20.80;72.40;;;;;;4935554;29;20442;-83
2023/04/09 00:18:28;;;;;;;4.27;3.87;;;20.80;72.50;;;;;;4935324;29;20798;-83
2023/04/09 00:20:55;;;;;;;4.33;4.03;;;20.80;72.20;;;;;;4937095;29;20443;-83
2023/04/09 00:23:21;;;;;;;3.90;3.60;;;20.80;72.20;;;;;;4938866;29;20448;-83
2023/04/09 00:25:48;;;;;;;4.50;4.10;;;20.80;72.30;;;;;;4938778;29;20455;-83
2023/04/09 00:28:15;;;;;;;4.50;4.10;;;20.80;72.20;;;;;;4938904;29;20459;-83
2023/04/09 00:30:43;;;;;;;4.40;4.00;;;20.80;72.20;;;;;;4938780;29;20450;-83
2023/04/09 00:33:11;;;;;;;4.10;3.80;;;20.80;73.00;;;;;;4938858;29;20443;-82
2023/04/09 00:35:38;;;;;;;4.63;4.23;;;20.70;72.00;;;;;;4938754;29;20475;-82
2023/04/09 00:38:05;;;;;;;4.60;4.20;;;20.70;72.00;;;;;;4938519;29;20442;-82
2023/04/09 00:40:32;;;;;;;4.10;3.70;;;20.70;72.00;;;;;;4938603;29;20458;-83
2023/04/09 00:42:58;;;;;;;4.50;4.13;;;20.70;72.00;;;;;;4938449;29;20800;-82
2023/04/09 00:45:25;;;;;;;4.60;4.30;;;20.70;71.90;;;;;;4938551;29;20803;-82
2023/04/09 00:47:52;;;;;;;4.90;4.43;;;20.70;72.00;;;;;;4938319;29;20496;-82
2023/04/09 00:50:21;;;;;;;4.40;4.03;;;20.70;71.90;;;;;;4938561;29;20461;-82
2023/04/09 00:52:48;;;;;;;4.53;3.87;;;20.70;72.10;;;;;;4938285;29;20466;-82
2023/04/09 00:55:15;;;;;;;3.87;3.57;;;20.70;72.00;;;;;;4938275;29;20453;-82
2023/04/09 00:57:42;;;;;;;4.30;3.77;;;20.70;72.00;;;;;;4938262;29;20969;-81
2023/04/09 01:00:10;;;;;;;5.07;4.67;;;20.70;72.00;;;;;;4938340;29;20946;-83
2023/04/09 01:02:37;;;;;;;4.47;4.07;;;20.70;71.90;;;;;;4938305;29;20451;-82
2023/04/09 01:05:04;;;;;;;4.67;4.27;;;20.70;71.90;;;;;;4938197;29;20463;-82
2023/04/09 01:07:46;;;;;;;4.30;3.90;;;20.60;71.80;;;;;;4937958;29;20494;-82
2023/04/09 01:10:23;;;;;;;4.90;4.50;;;20.60;71.80;;;;;;4938208;29;20451;-82
2023/04/09 01:13:00;;;;;;;4.50;4.10;;;20.60;71.80;;;;;;4937941;29;20443;-82
2023/04/09 01:15:30;;;;;;;4.37;4.07;;;20.60;71.90;;;;;;4938015;29;20451;-82
2023/04/09 01:18:06;;;;;;;5.23;4.83;;;20.50;71.70;;;;;;4937853;29;20517;-82
2023/04/09 01:20:38;;;;;;;5.20;4.80;;;20.60;71.80;;;;;;4938016;29;20450;-82
2023/04/09 01:23:16;;;;;;;3.73;3.43;;;20.60;71.70;;;;;;4921019;29;20439;-82
2023/04/09 01:25:53;;;;;;;4.70;4.30;;;20.60;71.70;;;;;;4937873;29;20446;-82
2023/04/09 01:28:25;;;;;;;3.93;3.63;;;20.60;71.60;;;;;;4937809;29;20491;-82
2023/04/09 01:30:57;;;;;;;4.93;4.53;;;20.60;71.60;;;;;;4937741;29;20447;-82
2023/04/09 01:33:25;;;;;;;5.10;4.70;;;20.60;71.60;;;;;;4936722;29;20951;-82
2023/04/09 01:35:52;;;;;;;4.33;4.03;;;20.60;71.60;;;;;;4920825;29;20476;-82
2023/04/09 01:38:21;;;;;;;4.90;4.50;;;20.60;71.60;;;;;;4937530;29;20466;-82
2023/04/09 01:40:49;;;;;;;4.47;4.07;;;20.60;71.60;;;;;;4937598;29;20451;-82
2023/04/09 01:43:16;;;;;;;4.33;4.03;;;20.60;71.60;;;;;;4937385;29;20442;-82
2023/04/09 01:45:45;;;;;;;4.53;4.13;;;20.60;71.70;;;;;;4937530;29;20448;-82
2023/04/09 01:48:13;;;;;;;4.70;4.30;;;20.50;71.50;;;;;;4937278;29;21015;-83
2023/04/09 01:50:41;;;;;;;4.57;4.17;;;20.50;71.40;;;;;;4937437;29;20443;-83
2023/04/09 01:53:07;;;;;;;4.10;3.80;;;20.50;71.50;;;;;;4937250;29;20447;-82
2023/04/09 01:55:35;;;;;;;4.40;4.00;;;20.50;71.40;;;;;;4937403;29;20451;-82
2023/04/09 01:58:02;;;;;;;4.30;4.00;;;20.50;71.40;;;;;;4937057;29;20455;-82
2023/04/09 02:00:35;;;;;;;5.10;4.70;;;20.50;71.40;;;;;;4937281;29;20449;-82
2023/04/09 02:03:07;;;;;;;4.37;4.00;;;20.60;71.50;;;;;;4937212;29;20446;-82
2023/04/09 02:05:38;;;;;;;4.13;3.73;;;20.50;71.40;;;;;;4936971;29;20491;-82
2023/04/09 02:08:08;;;;;;;4.37;4.07;;;20.50;71.30;;;;;;4936933;29;20495;-82
2023/04/09 02:10:38;;;;;;;4.33;4.03;;;20.50;71.40;;;;;;4937037;29;20442;-82
2023/04/09 02:13:06;;;;;;;4.47;4.03;;;20.50;71.30;;;;;;4919820;29;20495;-83
2023/04/09 02:15:36;;;;;;;4.80;4.30;;;20.60;71.50;;;;;;4920148;29;20446;-82
2023/04/09 02:18:04;;;;;;;4.80;4.40;;;20.50;71.30;;;;;;4936840;29;20451;-81
2023/04/09 02:20:31;;;;;;;4.47;4.07;;;20.50;71.30;;;;;;4936767;29;20451;-82
2023/04/09 02:22:58;;;;;;;4.60;4.20;;;20.60;71.40;;;;;;4936849;29;20939;-82
2023/04/09 02:25:26;;;;;;;4.23;3.83;;;20.40;71.10;;;;;;4936661;29;20795;-82
2023/04/09 02:27:53;;;;;;;4.20;3.90;;;20.50;71.30;;;;;;4936658;29;20553;-82
2023/04/09 02:30:20;;;;;;;4.40;4.03;;;20.50;71.30;;;;;;4936714;29;20443;-82
2023/04/09 02:32:46;;;;;;;5.10;4.30;;;20.50;71.20;;;;;;4936494;29;20450;-81
2023/04/09 02:35:15;;;;;;;5.00;4.50;;;20.40;71.10;;;;;;4936513;29;20470;-82
2023/04/09 02:37:41;;;;;;;4.70;4.30;;;20.40;71.20;;;;;;4936450;29;20972;-83
2023/04/09 02:40:09;;;;;;;3.90;3.60;;;20.60;71.40;;;;;;4936480;29;20448;-82
2023/04/09 02:42:36;;;;;;;5.00;4.60;;;20.40;71.20;;;;;;4936363;29;20443;-82
2023/04/09 02:45:03;;;;;;;4.50;4.10;;;20.40;71.10;;;;;;4936277;29;20455;-82
2023/04/09 02:47:30;;;;;;;4.57;4.20;;;20.40;71.10;;;;;;4936308;29;20509;-82
2023/04/09 02:49:59;;;;;;;4.33;3.93;;;20.40;71.00;;;;;;4936358;29;20450;-82
2023/04/09 02:52:27;;;;;;;4.10;3.80;;;20.40;71.10;;;;;;4936170;29;20449;-81
2023/04/09 02:54:54;;;;;;;5.40;4.90;;;20.40;71.00;;;;;;4936284;29;20452;-82
2023/04/09 02:57:21;;;;;;;3.83;3.53;;;20.40;71.10;;;;;;4936182;29;20483;-82
2023/04/09 02:59:47;;;;;;;4.27;3.97;;;20.40;70.90;;;;;;4936035;29;20438;-82
2023/04/09 03:02:14;;;;;;;4.20;3.90;;;20.40;71.10;;;;;;4936060;29;20443;-82
2023/04/09 03:04:41;;;;;;;4.43;3.97;;;20.40;71.10;;;;;;4936077;29;20463;-82
2023/04/09 03:07:08;;;;;;;4.90;4.50;;;20.30;70.90;;;;;;4936001;29;20486;-81
2023/04/09 03:09:36;;;;;;;4.50;4.10;;;20.30;71.00;;;;;;4936035;29;20856;-82
2023/04/09 03:12:03;;;;;;;4.67;4.27;;;20.50;71.20;;;;;;4936059;29;20469;-82
2023/04/09 03:14:30;;;;;;;4.23;3.83;;;20.30;71.00;;;;;;4935975;29;20451;-82
2023/04/09 03:16:56;;;;;;;4.73;4.33;;;20.30;70.80;;;;;;4935701;29;20449;-83
2023/04/09 03:19:23;;;;;;;4.83;4.43;;;20.30;70.80;;;;;;4936014;29;20454;-82
2023/04/09 03:21:50;;;;;;;4.50;4.10;;;20.30;70.80;;;;;;4935887;29;20439;-82
2023/04/09 03:24:17;;;;;;;4.33;4.03;;;20.30;70.70;;;;;;4935962;29;20466;-82
2023/04/09 03:26:45;;;;;;;4.20;3.87;;;20.30;70.80;;;;;;4935809;29;20459;-83
2023/04/09 03:29:12;;;;;;;4.10;3.80;;;20.30;70.70;;;;;;4935860;29;20469;-82
2023/04/09 03:31:39;;;;;;;4.40;4.03;;;20.30;70.70;;;;;;4935857;29;20451;-82
2023/04/09 03:34:05;;;;;;;4.17;3.87;;;20.30;70.70;;;;;;4935704;29;20471;-82
2023/04/09 03:36:32;;;;;;;4.80;4.50;;;20.40;70.90;;;;;;4935906;29;20448;-82
2023/04/09 03:38:59;;;;;;;5.13;4.63;;;20.30;70.70;;;;;;4935845;29;20526;-82
2023/04/09 03:41:27;;;;;;;4.10;3.83;;;20.30;70.60;;;;;;4935678;29;20529;-82
2023/04/09 03:43:55;;;;;;;5.03;4.57;;;20.30;70.70;;;;;;4935696;29;20455;-82
2023/04/09 03:46:22;;;;;;;5.10;4.60;;;20.30;70.80;;;;;;4935641;29;21011;-83
2023/04/09 03:48:49;;;;;;;4.30;4.00;;;20.30;70.70;;;;;;4935657;29;20494;-82
2023/04/09 03:51:16;;;;;;;4.40;4.00;;;20.30;70.70;;;;;;4936108;29;20925;-82
2023/04/09 03:53:43;;;;;;;5.00;4.60;;;20.30;70.60;;;;;;4935644;29;20456;-82
2023/04/09 03:56:11;;;;;;;4.93;4.07;;;20.30;70.40;;;;;;4937618;29;20452;-82
2023/04/09 03:58:37;;;;;;;4.40;4.00;;;20.30;70.50;;;;;;4939407;29;20929;-82
2023/04/09 04:01:06;;;;;;;4.97;4.57;;;20.30;70.70;;;;;;4948538;28;20433;-83
2023/04/09 04:03:32;;;;;;;3.97;3.67;;;20.20;70.70;;;;;;4958504;29;20805;-82
2023/04/09 04:06:02;;;;;;;4.33;3.93;;;20.20;70.60;;;;;;4958313;29;20999;-82
2023/04/09 04:08:28;;;;;;;4.50;4.20;;;20.20;70.60;;;;;;4958374;29;20489;-82
2023/04/09 04:10:55;;;;;;;4.50;4.10;;;20.20;70.50;;;;;;4958273;29;20742;-82
2023/04/09 04:13:22;;;;;;;4.90;4.50;;;20.20;70.50;;;;;;4958248;29;20453;-82
2023/04/09 04:15:49;;;;;;;4.77;4.40;;;20.20;70.50;;;;;;4958119;29;20817;-82
2023/04/09 04:18:17;;;;;;;6.10;4.40;;;20.20;70.50;;;;;;4958198;29;20909;-82
2023/04/09 04:20:44;;;;;;;5.70;5.20;;;20.20;70.40;;;;;;4958205;29;20449;-82
2023/04/09 04:23:11;;;;;;;3.60;3.30;;;20.20;70.50;;;;;;4957993;29;20544;-82
2023/04/09 04:25:40;;;;;;;4.87;4.47;;;20.20;70.50;;;;;;4958104;29;20959;-82
2023/04/09 04:28:07;;;;;;;4.83;4.43;;;20.20;70.50;;;;;;4958046;29;20584;-82
2023/04/09 04:30:33;;;;;;;4.90;4.40;;;20.20;71.40;;;;;;4957975;29;20445;-82
2023/04/09 04:33:00;;;;;;;4.10;3.77;;;20.20;70.50;;;;;;4957788;29;20444;-82
2023/04/09 04:35:28;;;;;;;4.10;3.80;;;20.20;70.50;;;;;;4957869;29;20462;-82
2023/04/09 04:37:55;;;;;;;4.60;4.20;;;20.20;70.60;;;;;;4957742;29;20572;-82
2023/04/09 04:40:22;;;;;;;4.87;4.27;;;20.20;70.40;;;;;;4957811;29;20442;-82
2023/04/09 04:42:49;;;;;;;4.13;3.83;;;20.10;70.40;;;;;;4957671;29;20460;-82
2023/04/09 04:45:16;;;;;;;4.10;3.80;;;20.10;70.40;;;;;;4957675;29;20442;-82
2023/04/09 04:47:43;;;;;;;4.40;4.00;;;20.10;70.30;;;;;;4957441;29;20493;-82
2023/04/09 04:50:10;;;;;;;4.73;4.23;;;20.10;70.40;;;;;;4957466;29;20457;-82
2023/04/09 04:52:39;;;;;;;4.20;3.87;;;20.10;70.30;;;;;;4957634;29;20442;-82
2023/04/09 04:55:06;;;;;;;4.77;4.43;;;20.10;70.30;;;;;;4957548;29;20445;-82
2023/04/09 04:57:33;;;;;;;4.67;4.27;;;20.10;70.20;;;;;;4957651;29;20461;-82
2023/04/09 05:00:00;;;;;;;4.40;4.00;;;20.10;70.20;;;;;;4957448;29;20941;-83
2023/04/09 05:02:27;;;;;;;4.53;4.23;;;20.10;70.20;;;;;;4957272;29;20881;-82
2023/04/09 05:04:53;;;;;;;7.10;4.27;;;20.10;70.20;;;;;;4957201;29;20472;-82
2023/04/09 05:07:20;;;;;;;4.70;4.30;;;20.10;70.20;;;;;;4957094;28;20455;-83
2023/04/09 05:09:48;;;;;;;4.60;4.20;;;20.10;70.10;;;;;;4957312;29;20442;-82
2023/04/09 05:12:16;;;;;;;4.67;4.30;;;20.20;70.30;;;;;;4957108;29;20446;-83
2023/04/09 05:14:43;;;;;;;4.87;4.23;;;20.10;70.10;;;;;;4957062;29;20446;-82
2023/04/09 05:17:10;;;;;;;4.17;3.83;;;20.10;70.10;;;;;;4956941;29;20438;-81
2023/04/09 05:19:37;;;;;;;4.97;4.57;;;20.10;70.10;;;;;;4957026;29;20450;-82
2023/04/09 05:22:03;;;;;;;4.83;4.43;;;20.10;70.10;;;;;;4957040;29;20448;-80
2023/04/09 05:24:30;;;;;;;4.50;4.10;;;20.10;70.10;;;;;;4957110;29;20443;-82
2023/04/09 05:26:58;;;;;;;4.87;4.47;;;20.10;70.00;;;;;;4956975;29;20438;-82
2023/04/09 05:29:25;;;;;;;4.87;4.50;;;20.20;70.20;;;;;;4956818;29;20841;-82
2023/04/09 05:31:52;;;;;;;5.20;4.70;;;20.10;70.10;;;;;;4956826;29;20520;-82
2023/04/09 05:34:19;;;;;;;4.20;3.80;;;20.10;70.90;;;;;;4956776;29;20462;-82
2023/04/09 05:36:45;;;;;;;4.17;3.77;;;20.10;70.00;;;;;;4956723;29;20446;-82
2023/04/09 05:39:12;;;;;;;4.70;4.30;;;20.10;70.10;;;;;;4956665;29;20453;-82
2023/04/09 05:41:40;;;;;;;4.60;4.20;;;20.20;70.30;;;;;;4956795;29;20452;-82
2023/04/09 05:44:08;;;;;;;4.10;3.80;;;20.10;70.20;;;;;;4956845;29;20928;-82
2023/04/09 05:46:35;;;;;;;5.00;4.60;;;20.00;70.00;;;;;;4956558;29;20473;-83
2023/04/09 05:49:02;;;;;;;5.13;4.67;;;20.00;70.00;;;;;;4956385;29;20486;-83
2023/04/09 05:51:29;;;;;;;5.27;4.87;;;20.00;70.00;;;;;;4956455;29;20455;-82
2023/04/09 05:53:56;;;;;;;5.90;5.33;;;20.00;70.00;;;;;;4956353;29;20451;-83
2023/04/09 05:56:22;;;;;;;4.13;3.83;;;20.00;69.90;;;;;;4956358;29;20445;-83
2023/04/09 05:58:49;;;;;;;4.40;4.00;;;20.00;69.80;;;;;;4956531;29;20805;-83
2023/04/09 06:01:17;;;;;;;4.80;4.40;;;20.00;69.90;;;;;;4956318;29;20448;-83
2023/04/09 06:03:44;;;;;;;3.57;3.37;;;20.00;69.80;;;;;;4956121;29;21021;-83
2023/04/09 06:06:11;;;;;;;5.13;4.67;;;20.00;69.70;;;;;;4956182;29;20505;-83
2023/04/09 06:08:38;;;;;;;5.40;4.90;;;20.00;69.80;;;;;;4956055;29;20492;-82
2023/04/09 06:11:09;;;;;;;5.80;5.30;;;20.10;69.50;;;;;;4955617;29;20437;-83
2023/04/09 06:13:35;;;;;;;5.10;4.70;;;20.10;69.30;;;;;;4956419;29;20450;-84
2023/04/09 06:16:04;;;;;;;4.80;4.40;;;20.10;69.70;;;;;;4956038;29;20449;-83
2023/04/09 06:18:32;;;;;;;7.20;4.30;;;20.10;69.80;;;;;;4955702;28;20468;-83
2023/04/09 06:21:03;;;;;;;4.60;4.30;;;20.10;69.90;;;;;;4956522;29;20446;-81
2023/04/09 06:23:30;;;;;;;6.17;5.57;;;20.20;70.20;;;;;;4956060;29;20442;-84
2023/04/09 06:25:57;;;;;;;5.60;5.10;;;20.20;70.40;;;;;;4956346;29;20933;-84
2023/04/09 06:28:24;;;;;;;7.10;4.60;;;20.20;69.60;;;;;;4955992;29;20478;-84
2023/04/09 06:30:52;;;;;;;8.30;4.90;;;20.20;70.40;;;;;;4956281;29;20449;-85
2023/04/09 06:33:19;;;;;;;6.73;4.60;;;20.40;71.00;;;;;;4956511;29;20453;-87
2023/04/09 06:35:47;;;;;;;5.10;4.67;;;20.20;70.40;;;;;;4959147;29;20553;-87
2023/04/09 06:38:14;;;;;;;5.27;4.77;;;20.20;70.40;;;;;;4956169;29;20456;-86
2023/04/09 06:40:41;;;;;;;5.00;4.50;;;20.30;70.20;;;;;;4955980;29;20449;-86
2023/04/09 06:43:08;;;;;;;5.20;4.70;;;20.30;70.90;;;;;;4955949;29;20929;-87
2023/04/09 06:45:36;;;;;;;6.60;4.70;;;20.30;70.60;;;;;;4955975;29;20456;-86
2023/04/09 06:48:03;;;;;;;5.33;4.60;;;20.30;70.90;;;;;;4955646;29;20497;-86
2023/04/09 06:50:30;;;;;;;5.73;4.70;;;20.30;70.90;;;;;;4956009;29;20445;-87
2023/04/09 06:52:58;;;;;;;5.90;5.03;;;20.40;71.10;;;;;;4956002;29;20842;-87
2023/04/09 06:55:26;;;;;;;7.20;5.23;;;20.40;71.10;;;;;;4955853;29;20447;-85
2023/04/09 06:57:53;;;;;;;5.33;4.53;;;20.40;71.40;;;;;;4955651;29;20809;-85
2023/04/09 07:00:21;;;;;;;7.60;5.90;;;20.50;71.90;;;;;;4955590;29;20453;-86
2023/04/09 07:02:48;;;;;;;5.73;5.17;;;20.40;71.60;;;;;;4956010;29;20442;-86
2023/04/09 07:05:15;;;;;;;5.43;4.93;;;20.50;71.50;;;;;;4955563;29;20474;-85
2023/04/09 07:07:42;;;;;;;5.53;4.90;;;20.50;71.50;;;;;;4955941;29;20449;-86
2023/04/09 07:10:11;;;;;;;6.83;4.50;;;20.50;71.40;;;;;;4955579;29;21000;-85
2023/04/09 07:12:38;;;;;;;5.33;4.83;;;20.50;71.90;;;;;;4955584;29;20442;-86
2023/04/09 07:15:06;;;;;;;5.07;4.57;;;20.50;71.70;;;;;;4956023;29;20940;-85
2023/04/09 07:17:34;;;;;;;5.00;4.50;;;20.50;71.60;;;;;;4955611;29;20533;-86
2023/04/09 07:20:01;;;;;;;5.30;4.80;;;20.50;71.70;;;;;;4955651;29;20450;-86
2023/04/09 07:22:29;;;;;;;4.97;4.40;;;20.60;71.60;;;;;;4956355;29;20438;-88
2023/04/09 07:24:56;;;;;;;5.87;5.37;;;20.60;71.40;;;;;;4956029;29;20446;-87
2023/04/09 07:27:28;;;;;;;4.97;4.47;;;20.60;71.50;;;;;;4954445;29;20470;-89
2023/04/09 07:29:56;;;;;;;5.80;4.40;;;20.70;71.60;;;;;;4956092;28;20502;-91
2023/04/09 07:32:23;;;;;;;6.23;4.47;;;20.60;71.90;;;;;;4959393;29;21023;-87
2023/04/09 07:34:52;;;;;;;6.10;4.20;;;20.60;71.70;;;;;;4961480;29;20984;-87
2023/04/09 07:37:19;;;;;;;4.73;4.23;;;20.60;71.70;;;;;;4967528;29;20438;-86
2023/04/09 07:39:46;;;;;;;6.40;4.60;;;20.60;71.90;;;;;;4962432;29;21031;-87
2023/04/09 07:42:13;;;;;;;5.17;4.67;;;20.60;71.90;;;;;;4969598;28;20454;-82
2023/04/09 07:44:42;;;;;;;4.93;4.50;;;20.60;72.00;;;;;;4960526;29;20479;-86
2023/04/09 07:47:10;;;;;;;5.20;4.70;;;20.70;72.10;;;;;;4959193;29;20536;-86
2023/04/09 07:49:37;;;;;;;9.93;4.90;;;20.70;71.90;;;;;;4959450;29;20987;-86
2023/04/09 07:52:05;;;;;;;5.70;5.13;;;20.70;72.00;;;;;;4959414;29;20448;-82
2023/04/09 07:54:32;;;;;;;5.17;4.67;;;20.70;71.70;;;;;;4958911;29;20454;-83
2023/04/09 07:56:58;;;;;;;7.60;4.80;;;20.70;69.10;;;;;;4958645;29;20953;-83
2023/04/09 07:59:26;;;;;;;7.30;4.43;;;20.70;70.30;;;;;;4958953;29;20468;-81
2023/04/09 08:01:54;;;;;;;6.03;4.27;;;20.70;71.80;;;;;;4959325;29;20545;-83
2023/04/09 08:04:21;;;;;;;8.93;4.70;;;20.70;72.10;;;;;;4958733;29;20472;-83
2023/04/09 08:06:50;;;;;;;5.10;4.70;;;20.70;72.30;;;;;;4958763;29;20463;-83
2023/04/09 08:09:17;;;;;;;5.10;4.43;;;20.80;72.60;;;;;;4958627;29;20580;-84
2023/04/09 08:11:44;;;;;;;5.60;5.10;;;20.80;72.70;;;;;;4958583;29;20542;-83
2023/04/09 08:14:11;;;;;;;5.10;4.47;;;20.80;72.90;;;;;;4958437;29;20446;-82
2023/04/09 08:16:39;;;;;;;6.93;5.30;;;20.80;73.10;;;;;;4958145;29;21004;-83
2023/04/09 08:19:07;;;;;;;5.00;4.50;;;20.90;73.10;;;;;;4958195;29;20446;-83
2023/04/09 08:21:34;;;;;;;4.57;4.10;;;20.90;73.00;;;;;;4958530;29;20810;-83
2023/04/09 08:24:03;;;;;;;5.07;4.57;;;20.90;73.00;;;;;;4958497;29;20445;-83
2023/04/09 08:26:30;;;;;;;8.00;4.70;;;20.90;73.00;;;;;;4958485;29;20446;-83
2023/04/09 08:28:59;;;;;;;5.20;4.73;;;21.00;73.30;;;;;;4958242;29;20489;-83
2023/04/09 08:31:26;;;;;;;4.50;4.10;;;21.00;73.10;;;;;;4958268;29;20445;-83
2023/04/09 08:33:53;;;;;;;7.33;5.37;;;21.10;73.30;;;;;;4958148;29;20457;-84
2023/04/09 08:36:21;;;;;;;4.03;3.73;;;21.10;73.40;;;;;;4958423;29;20444;-83
2023/04/09 08:38:48;;;;;;;5.67;4.10;;;21.10;73.40;;;;;;4958109;29;20441;-83
2023/04/09 08:41:19;;;;;;;4.37;3.97;;;21.10;73.40;;;;;;4957579;28;20541;-83
2023/04/09 08:43:47;;;;;;;4.73;4.33;;;21.30;73.60;;;;;;4958090;29;20446;-84
2023/04/09 08:46:15;;;;;;;5.40;4.90;;;21.20;73.40;;;;;;4957756;29;20488;-83
2023/04/09 08:48:44;;;;;;;6.33;4.63;;;21.20;73.40;;;;;;4958184;29;20806;-83
2023/04/09 08:51:13;;;;;;;4.40;4.00;;;21.30;73.50;;;;;;4958519;29;20540;-83
2023/04/09 08:53:44;;;;;;;5.83;4.10;;;21.30;73.50;;;;;;4958191;29;20457;-83
2023/04/09 08:56:12;;;;;;;4.00;3.70;;;21.40;73.60;;;;;;4957696;29;20454;-83
2023/04/09 08:58:42;;;;;;;4.23;3.90;;;21.40;73.60;;;;;;4958169;29;20450;-83
2023/04/09 09:01:19;;;;;;;3.80;3.50;;;21.40;73.60;;;;;;4957925;29;20451;-83
2023/04/09 09:03:57;;;;;;;7.73;5.30;;;21.40;73.70;;;;;;4957919;29;20484;-83
2023/04/09 09:06:27;;;;;;;7.50;6.10;;;21.50;71.20;;;;;;4958076;29;20455;-83
2023/04/09 09:09:02;;;;;;;5.60;4.83;;;21.40;64.10;;;;;;4957754;29;20991;-85
2023/04/09 09:11:30;;;;;;;4.27;3.90;;;21.40;70.80;;;;;;4957379;29;20442;-84
2023/04/09 09:14:01;;;;;;;5.40;4.60;;;21.40;71.10;;;;;;4957393;29;20507;-82
2023/04/09 09:16:28;;;;;;;4.60;4.20;;;21.50;71.30;;;;;;4957249;29;20446;-84
2023/04/09 09:18:55;;;;;;;9.47;5.17;;;21.50;71.30;;;;;;4957506;29;20442;-84
2023/04/09 09:21:23;;;;;;;4.93;4.53;;;21.50;71.00;;;;;;4957264;29;20480;-83
2023/04/09 09:23:50;;;;;;;5.70;4.87;;;21.70;71.00;;;;;;4957388;29;20444;-83
2023/04/09 09:26:20;;;;;;;4.30;4.00;;;21.80;71.20;;;;;;4957384;29;20446;-84
2023/04/09 09:28:49;;;;;;;5.83;4.70;;;21.70;71.20;;;;;;4957500;29;20944;-83
2023/04/09 09:31:18;;;;;;;3.93;3.63;;;21.80;71.30;;;;;;4957042;29;20446;-82
2023/04/09 09:33:46;;;;;;;5.13;4.63;;;21.80;71.30;;;;;;4956955;29;20442;-83
2023/04/09 09:36:13;;;;;;;5.53;5.00;;;21.90;71.50;;;;;;4956983;29;20449;-83
2023/04/09 09:38:55;;;;;;;4.87;4.47;;;21.90;71.60;;;;;;4957157;29;20500;-82
2023/04/09 09:41:24;;;;;;;8.00;3.80;;;22.00;71.60;;;;;;4940046;29;20805;-83
2023/04/09 09:43:51;;;;;;;3.97;3.63;;;22.00;71.60;;;;;;4956749;29;20505;-83
2023/04/09 09:46:21;;;;;;;5.60;3.80;;;22.10;71.70;;;;;;4956692;29;20485;-84
2023/04/09 09:48:48;;;;;;;5.97;4.40;;;22.20;71.60;;;;;;4956802;29;20446;-83
2023/04/09 09:51:16;;;;;;;4.30;3.90;;;22.20;71.40;;;;;;4956179;29;20516;-83
2023/04/09 09:53:45;;;;;;;4.30;3.90;;;22.20;71.50;;;;;;4955844;28;20453;-83
2023/04/09 09:56:15;;;;;;;4.50;3.70;;;22.10;71.40;;;;;;4956786;29;20496;-85
2023/04/09 09:58:48;;;;;;;6.30;3.90;;;22.20;71.60;;;;;;4956697;29;20767;-85
2023/04/09 10:01:19;;;;;;;4.10;3.77;;;22.20;71.90;;;;;;4956468;29;20861;-86
2023/04/09 10:03:46;;;;;;;4.50;4.10;;;22.20;72.10;;;;;;4956245;29;20457;-86
2023/04/09 10:06:14;;;;;;;7.50;4.00;;;22.30;72.40;;;;;;4956540;29;20448;-84
2023/04/09 10:08:42;;;;;;;3.97;3.67;;;22.30;72.60;;;;;;4956486;29;20541;-85
2023/04/09 10:11:10;;;;;;;3.90;3.50;;;22.50;72.80;;;;;;4956126;29;20497;-85
2023/04/09 10:13:39;;;;;;;5.23;3.87;;;22.40;72.50;;;;;;4956425;29;20488;-85
2023/04/09 10:16:10;;;;;;;6.60;4.93;;;22.40;72.40;;;;;;4957037;29;20442;-85
2023/04/09 10:18:37;;;;;;;3.53;3.27;;;22.50;72.60;;;;;;4956818;29;20430;-85
2023/04/09 10:21:12;;;;;;;3.67;3.37;;;22.60;72.80;;;;;;4956367;29;20442;-85
2023/04/09 10:23:41;;;;;;;6.60;3.60;;;22.50;73.00;;;;;;4956267;29;20909;-86
2023/04/09 10:26:09;;;;;;;5.50;3.83;;;22.50;72.80;;;;;;4956296;29;20453;-82
2023/04/09 10:28:37;;;;;;;3.57;3.27;;;22.60;73.10;;;;;;4956099;29;20489;-83
2023/04/09 10:31:05;;;;;;;3.30;3.10;;;22.60;72.90;;;;;;4955795;29;20489;-83
2023/04/09 10:33:35;;;;;;;4.00;3.70;;;22.60;72.90;;;;;;4955001;29;20489;-84
2023/04/09 10:36:05;;;;;;;4.40;4.00;;;22.70;73.10;;;;;;4955587;29;20438;-83
2023/04/09 10:38:37;;;;;;;5.47;3.70;;;22.70;73.00;;;;;;4955518;29;20451;-83
2023/04/09 10:41:13;;;;;;;4.47;4.03;;;22.80;73.10;;;;;;4955741;29;20454;-83
2023/04/09 10:43:42;;;;;;;3.33;3.13;;;22.80;73.10;;;;;;4955407;29;20482;-83
2023/04/09 10:46:26;;;;;;;3.83;3.27;;;22.90;73.30;;;;;;4954917;29;20483;-84
2023/04/09 10:51:52;;;;;;;3.63;3.33;;;22.90;73.30;;;;;;5110205;27;1237081;-83
2023/04/09 10:54:42;;;;;;;3.70;3.30;;;23.00;73.30;;;;;;5131798;28;20597;-83
2023/04/09 10:57:13;;;;;;;4.07;3.67;;;23.10;73.30;;;;;;5125637;28;20467;-83
2023/04/09 10:59:41;;;;;;;4.17;3.77;;;23.10;73.20;;;;;;5131606;28;21028;-84
2023/04/09 11:02:12;;;;;;;4.43;3.03;;;23.10;73.10;;;;;;5131374;28;20426;-83
2023/04/09 11:04:51;;;;;;;5.23;3.50;;;23.10;73.00;;;;;;5121491;28;20463;-83
2023/04/09 11:07:22;;;;;;;3.90;3.60;;;23.20;73.20;;;;;;5111160;28;20432;-83
2023/04/09 11:09:48;;;;;;;4.40;3.10;;;23.10;73.10;;;;;;5110888;28;20481;-83
2023/04/09 11:12:15;;;;;;;5.77;3.63;;;23.30;73.30;;;;;;5110798;28;20449;-84
2023/04/09 11:14:42;;;;;;;3.67;3.30;;;23.10;73.00;;;;;;5110988;28;20934;-83
2023/04/09 11:17:09;;;;;;;3.60;3.30;;;23.10;73.40;;;;;;5110839;28;20795;-83
2023/04/09 11:19:36;;;;;;;3.30;3.00;;;23.10;73.10;;;;;;5110836;28;20470;-84
2023/04/09 11:22:05;;;;;;;3.50;3.20;;;23.10;73.00;;;;;;5092796;28;20510;-84
2023/04/09 11:24:41;;;;;;;3.40;2.97;;;23.10;73.10;;;;;;5092485;28;20834;-84
2023/04/09 11:27:08;;;;;;;4.10;3.10;;;23.10;73.50;;;;;;5110745;28;20458;-83
2023/04/09 11:29:35;;;;;;;3.10;2.90;;;23.10;73.70;;;;;;5110791;28;20435;-84
2023/04/09 11:32:04;;;;;;;3.20;3.00;;;23.10;73.60;;;;;;5092483;28;20441;-84
2023/04/09 11:34:30;;;;;;;3.40;3.10;;;23.10;73.50;;;;;;5110491;28;20478;-84
2023/04/09 11:36:58;;;;;;;3.47;3.20;;;23.10;73.40;;;;;;5110413;28;20926;-84
2023/04/09 11:39:25;;;;;;;3.40;3.10;;;23.10;73.40;;;;;;5110596;28;20858;-84
2023/04/09 11:41:54;;;;;;;3.37;3.07;;;23.10;73.40;;;;;;5110491;28;20448;-83
2023/04/09 11:44:21;;;;;;;3.70;3.40;;;23.20;73.70;;;;;;5110251;28;20462;-83
2023/04/09 11:46:49;;;;;;;3.70;3.40;;;23.20;73.70;;;;;;5092433;28;20441;-84
2023/04/09 11:49:16;;;;;;;3.23;3.03;;;23.20;73.60;;;;;;5110257;28;20442;-83
2023/04/09 11:51:43;;;;;;;3.10;2.90;;;23.20;73.60;;;;;;5109954;28;20491;-83
2023/04/09 11:54:12;;;;;;;3.20;2.97;;;23.20;73.50;;;;;;5110221;28;20950;-84
2023/04/09 11:56:39;;;;;;;3.40;3.20;;;23.30;73.80;;;;;;5110515;28;20436;-83
2023/04/09 11:59:07;;;;;;;3.30;2.60;;;23.20;74.00;;;;;;5110166;28;20440;-84
2023/04/09 12:01:34;;;;;;;3.70;3.40;;;23.30;74.10;;;;;;5105246;28;20518;-84
2023/04/09 12:04:01;;;;;;;3.63;3.13;;;23.30;73.90;;;;;;5096292;28;20488;-84
2023/04/09 12:06:28;;;;;;;3.70;3.20;;;23.30;73.70;;;;;;5096173;28;20879;-83
2023/04/09 12:08:57;;;;;;;2.93;2.60;;;23.30;73.80;;;;;;5096210;28;20436;-83
2023/04/09 12:11:30;;;;;;;3.43;3.13;;;23.20;73.70;;;;;;5096215;28;20481;-83
2023/04/09 12:14:00;;;;;;;3.43;3.23;;;23.20;73.70;;;;;;5096348;28;20438;-84
2023/04/09 12:16:30;;;;;;;3.53;3.33;;;23.20;73.80;;;;;;5096176;28;20536;-83
2023/04/09 12:19:00;;;;;;;3.40;2.83;;;23.20;73.60;;;;;;5096158;28;20436;-85
2023/04/09 12:21:45;;;;;;;3.50;3.20;;;23.10;73.50;;;;;;5096127;28;20445;-83
2023/04/09 12:24:12;;;;;;;4.20;3.80;;;23.10;73.60;;;;;;5095985;28;20437;-83
2023/04/09 12:26:39;;;;;;;3.37;3.07;;;23.10;73.50;;;;;;5096160;28;20436;-84
2023/04/09 12:29:06;;;;;;;3.30;3.00;;;23.00;73.50;;;;;;5096034;28;20436;-82
2023/04/09 12:31:34;;;;;;;2.70;2.50;;;23.00;73.70;;;;;;5095787;28;20511;-83
2023/04/09 12:34:02;;;;;;;3.30;3.00;;;23.00;73.80;;;;;;5095742;28;20476;-83
2023/04/09 12:36:29;;;;;;;3.30;3.00;;;23.00;73.80;;;;;;5095932;28;20441;-84
2023/04/09 12:38:56;;;;;;;3.47;3.17;;;22.90;73.70;;;;;;5096069;28;20509;-84
2023/04/09 12:41:23;;;;;;;3.27;3.00;;;22.90;73.70;;;;;;5095574;28;20867;-84
2023/04/09 12:43:49;;;;;;;2.67;2.47;;;22.90;73.70;;;;;;5095742;28;20914;-83
2023/04/09 12:46:17;;;;;;;3.27;2.97;;;22.90;73.60;;;;;;5077762;28;20436;-83
2023/04/09 12:48:46;;;;;;;2.93;2.73;;;22.80;73.70;;;;;;5094916;28;20439;-82
2023/04/09 12:51:13;;;;;;;3.80;3.37;;;22.90;74.00;;;;;;5095365;28;20495;-84
2023/04/09 12:53:40;;;;;;;2.60;2.27;;;22.90;74.00;;;;;;5095709;28;20439;-84
2023/04/09 12:56:07;;;;;;;3.20;3.00;;;22.90;74.00;;;;;;5095352;28;20441;-84